Terminal Aerodrome Forecast
Issued by NWS Norman, OK

Home | Current Version | Previous Version | Text Only | Print | Product List | Glossary On
Versions: 1 2 3 4 5 6 7 8 9 10 11 12 13 14 15 16 17 18 19 20 21 22 23 24
000
FTUS44 KOUN 301729
TAFOKC
TAF
KOKC 301729Z 3018/3118 03003KT P6SM VCTS BKN040CB
     FM310200 35006KT P6SM SCT030 SCT100
     FM311500 01005KT P6SM BKN035 PROB30 3115/3118 4SM -TSRA
      OVC050CB=

USA.gov is the U.S. government's official web portal to all federal, state and local government web resources and services.